sensor_id;sensor_type;location;lat;lon;timestamp;temperature;humidity
65864;SHT30;52639;51.180;20.460;2022-11-23T00:00:50;0.66;95.48
65864;SHT30;52639;51.180;20.460;2022-11-23T00:05:14;0.69;95.79
65864;SHT30;52639;51.180;20.460;2022-11-23T00:09:17;0.68;95.73
65864;SHT30;52639;51.180;20.460;2022-11-23T00:13:19;0.64;96.24
65864;SHT30;52639;51.180;20.460;2022-11-23T00:17:22;0.64;96.28
65864;SHT30;52639;51.180;20.460;2022-11-23T00:21:27;0.61;96.67
65864;SHT30;52639;51.180;20.460;2022-11-23T00:25:30;0.60;96.45
65864;SHT30;52639;51.180;20.460;2022-11-23T00:29:32;0.58;96.50
65864;SHT30;52639;51.180;20.460;2022-11-23T00:33:36;0.60;96.23
65864;SHT30;52639;51.180;20.460;2022-11-23T00:37:41;0.54;96.22
65864;SHT30;52639;51.180;20.460;2022-11-23T00:41:44;0.50;96.46
65864;SHT30;52639;51.180;20.460;2022-11-23T00:45:46;0.48;97.29
65864;SHT30;52639;51.180;20.460;2022-11-23T00:49:50;0.45;97.42
65864;SHT30;52639;51.180;20.460;2022-11-23T00:53:55;0.47;97.44
65864;SHT30;52639;51.180;20.460;2022-11-23T00:57:57;0.44;97.56
65864;SHT30;52639;51.180;20.460;2022-11-23T01:02:01;0.42;97.38
65864;SHT30;52639;51.180;20.460;2022-11-23T01:06:05;0.42;97.29
65864;SHT30;52639;51.180;20.460;2022-11-23T01:10:09;0.41;97.25
65864;SHT30;52639;51.180;20.460;2022-11-23T01:14:12;0.41;96.94
65864;SHT30;52639;51.180;20.460;2022-11-23T01:18:14;0.40;97.25
65864;SHT30;52639;51.180;20.460;2022-11-23T01:22:17;0.38;97.32
65864;SHT30;52639;51.180;20.460;2022-11-23T01:26:21;0.32;96.85
65864;SHT30;52639;51.180;20.460;2022-11-23T01:30:24;0.30;97.13
65864;SHT30;52639;51.180;20.460;2022-11-23T01:34:27;0.25;96.88
65864;SHT30;52639;51.180;20.460;2022-11-23T01:38:29;0.20;97.25
65864;SHT30;52639;51.180;20.460;2022-11-23T01:42:52;0.22;97.28
65864;SHT30;52639;51.180;20.460;2022-11-23T01:46:57;0.20;97.26
65864;SHT30;52639;51.180;20.460;2022-11-23T01:51:05;0.18;97.40
65864;SHT30;52639;51.180;20.460;2022-11-23T01:55:08;0.18;97.50
65864;SHT30;52639;51.180;20.460;2022-11-23T01:59:14;0.17;97.48
65864;SHT30;52639;51.180;20.460;2022-11-23T02:03:17;0.13;97.59
65864;SHT30;52639;51.180;20.460;2022-11-23T02:07:21;0.10;97.49
65864;SHT30;52639;51.180;20.460;2022-11-23T02:11:25;0.07;97.54
65864;SHT30;52639;51.180;20.460;2022-11-23T02:15:29;0.07;97.68
65864;SHT30;52639;51.180;20.460;2022-11-23T02:19:40;0.07;97.38
65864;SHT30;52639;51.180;20.460;2022-11-23T02:23:53;0.07;97.14
65864;SHT30;52639;51.180;20.460;2022-11-23T02:27:59;0.01;97.16
65864;SHT30;52639;51.180;20.460;2022-11-23T02:32:02;0.00;97.35
65864;SHT30;52639;51.180;20.460;2022-11-23T02:36:21;0.01;97.50
65864;SHT30;52639;51.180;20.460;2022-11-23T02:40:31;0.00;97.38
65864;SHT30;52639;51.180;20.460;2022-11-23T02:44:38;-0.03;97.31
65864;SHT30;52639;51.180;20.460;2022-11-23T02:48:43;-0.10;97.37
65864;SHT30;52639;51.180;20.460;2022-11-23T02:52:46;-0.13;97.82
65864;SHT30;52639;51.180;20.460;2022-11-23T02:56:50;-0.16;97.89
65864;SHT30;52639;51.180;20.460;2022-11-23T03:00:55;-0.17;97.77
65864;SHT30;52639;51.180;20.460;2022-11-23T03:04:58;-0.16;97.79
65864;SHT30;52639;51.180;20.460;2022-11-23T03:09:00;-0.17;97.69
65864;SHT30;52639;51.180;20.460;2022-11-23T03:13:03;-0.17;97.72
65864;SHT30;52639;51.180;20.460;2022-11-23T03:17:07;-0.17;97.47
65864;SHT30;52639;51.180;20.460;2022-11-23T03:21:09;-0.14;97.33
65864;SHT30;52639;51.180;20.460;2022-11-23T03:25:12;-0.23;97.25
65864;SHT30;52639;51.180;20.460;2022-11-23T03:29:14;-0.24;97.46
65864;SHT30;52639;51.180;20.460;2022-11-23T03:33:18;-0.30;97.32
65864;SHT30;52639;51.180;20.460;2022-11-23T03:37:21;-0.33;97.46
65864;SHT30;52639;51.180;20.460;2022-11-23T03:41:24;-0.36;97.48
65864;SHT30;52639;51.180;20.460;2022-11-23T03:45:26;-0.40;97.46
65864;SHT30;52639;51.180;20.460;2022-11-23T03:49:30;-0.38;97.22
65864;SHT30;52639;51.180;20.460;2022-11-23T03:53:33;-0.37;96.91
65864;SHT30;52639;51.180;20.460;2022-11-23T03:57:35;-0.37;96.83
65864;SHT30;52639;51.180;20.460;2022-11-23T04:01:38;-0.41;96.99
65864;SHT30;52639;51.180;20.460;2022-11-23T04:05:42;-0.42;96.91
65864;SHT30;52639;51.180;20.460;2022-11-23T04:09:45;-0.42;96.78
65864;SHT30;52639;51.180;20.460;2022-11-23T04:13:47;-0.41;96.88
65864;SHT30;52639;51.180;20.460;2022-11-23T04:17:50;-0.40;97.05
65864;SHT30;52639;51.180;20.460;2022-11-23T04:21:54;-0.38;96.77
65864;SHT30;52639;51.180;20.460;2022-11-23T04:25:57;-0.41;96.76
65864;SHT30;52639;51.180;20.460;2022-11-23T04:30:00;-0.41;96.52
65864;SHT30;52639;51.180;20.460;2022-11-23T04:34:02;-0.40;96.55
65864;SHT30;52639;51.180;20.460;2022-11-23T04:38:06;-0.36;96.72
65864;SHT30;52639;51.180;20.460;2022-11-23T04:42:10;-0.36;96.69
65864;SHT30;52639;51.180;20.460;2022-11-23T04:46:12;-0.28;96.72
65864;SHT30;52639;51.180;20.460;2022-11-23T04:50:15;-0.30;96.62
65864;SHT30;52639;51.180;20.460;2022-11-23T04:54:19;-0.28;96.77
65864;SHT30;52639;51.180;20.460;2022-11-23T04:58:22;-0.26;96.65
65864;SHT30;52639;51.180;20.460;2022-11-23T05:02:25;-0.23;96.48
65864;SHT30;52639;51.180;20.460;2022-11-23T05:06:27;-0.23;96.62
65864;SHT30;52639;51.180;20.460;2022-11-23T05:10:31;-0.21;96.83
65864;SHT30;52639;51.180;20.460;2022-11-23T05:14:34;-0.23;96.87
65864;SHT30;52639;51.180;20.460;2022-11-23T05:18:36;-0.23;96.92
65864;SHT30;52639;51.180;20.460;2022-11-23T05:22:39;-0.21;96.93
65864;SHT30;52639;51.180;20.460;2022-11-23T05:26:43;-0.23;96.88
65864;SHT30;52639;51.180;20.460;2022-11-23T05:30:46;-0.21;97.07
65864;SHT30;52639;51.180;20.460;2022-11-23T05:34:48;-0.21;96.89
65864;SHT30;52639;51.180;20.460;2022-11-23T05:38:51;-0.21;96.93
65864;SHT30;52639;51.180;20.460;2022-11-23T05:42:55;-0.23;97.06
65864;SHT30;52639;51.180;20.460;2022-11-23T05:46:58;-0.24;97.11
65864;SHT30;52639;51.180;20.460;2022-11-23T05:51:01;-0.24;97.16
65864;SHT30;52639;51.180;20.460;2022-11-23T05:55:03;-0.23;97.05
65864;SHT30;52639;51.180;20.460;2022-11-23T05:59:09;-0.23;97.09
65864;SHT30;52639;51.180;20.460;2022-11-23T06:03:11;-0.20;97.25
65864;SHT30;52639;51.180;20.460;2022-11-23T06:07:14;-0.18;97.21
65864;SHT30;52639;51.180;20.460;2022-11-23T06:11:16;-0.21;97.02
65864;SHT30;52639;51.180;20.460;2022-11-23T06:15:20;-0.17;97.19
65864;SHT30;52639;51.180;20.460;2022-11-23T06:19:23;-0.17;97.38
65864;SHT30;52639;51.180;20.460;2022-11-23T06:23:26;-0.16;97.33
65864;SHT30;52639;51.180;20.460;2022-11-23T06:27:28;-0.13;97.26
65864;SHT30;52639;51.180;20.460;2022-11-23T06:31:32;-0.07;97.14
65864;SHT30;52639;51.180;20.460;2022-11-23T06:35:36;-0.06;97.15
65864;SHT30;52639;51.180;20.460;2022-11-23T06:39:39;-0.02;96.99
65864;SHT30;52639;51.180;20.460;2022-11-23T06:43:41;0.06;96.96
65864;SHT30;52639;51.180;20.460;2022-11-23T06:47:45;0.07;96.72
65864;SHT30;52639;51.180;20.460;2022-11-23T06:51:51;0.11;96.58
65864;SHT30;52639;51.180;20.460;2022-11-23T06:55:57;0.20;96.37
65864;SHT30;52639;51.180;20.460;2022-11-23T06:59:59;0.24;96.19
65864;SHT30;52639;51.180;20.460;2022-11-23T07:04:04;0.30;96.15
65864;SHT30;52639;51.180;20.460;2022-11-23T07:08:06;0.36;95.90
65864;SHT30;52639;51.180;20.460;2022-11-23T07:12:09;0.40;95.75
65864;SHT30;52639;51.180;20.460;2022-11-23T07:16:11;0.50;95.46
65864;SHT30;52639;51.180;20.460;2022-11-23T07:20:17;0.50;95.29
65864;SHT30;52639;51.180;20.460;2022-11-23T07:24:19;0.51;95.39
65864;SHT30;52639;51.180;20.460;2022-11-23T07:28:22;0.60;95.38
65864;SHT30;52639;51.180;20.460;2022-11-23T07:32:24;0.60;95.26
65864;SHT30;52639;51.180;20.460;2022-11-23T07:36:33;0.66;95.10
65864;SHT30;52639;51.180;20.460;2022-11-23T07:40:37;0.71;94.69
65864;SHT30;52639;51.180;20.460;2022-11-23T07:44:41;0.75;94.79
65864;SHT30;52639;51.180;20.460;2022-11-23T07:48:44;0.85;94.47
65864;SHT30;52639;51.180;20.460;2022-11-23T07:52:47;0.85;94.35
65864;SHT30;52639;51.180;20.460;2022-11-23T07:56:52;0.93;94.09
65864;SHT30;52639;51.180;20.460;2022-11-23T08:00:54;0.99;93.84
65864;SHT30;52639;51.180;20.460;2022-11-23T08:04:57;1.07;93.36
65864;SHT30;52639;51.180;20.460;2022-11-23T08:09:05;1.26;93.44
65864;SHT30;52639;51.180;20.460;2022-11-23T08:13:08;1.29;93.02
65864;SHT30;52639;51.180;20.460;2022-11-23T08:17:11;1.44;92.64
65864;SHT30;52639;51.180;20.460;2022-11-23T08:21:14;1.54;91.47
65864;SHT30;52639;51.180;20.460;2022-11-23T08:25:18;1.81;92.12
65864;SHT30;52639;51.180;20.460;2022-11-23T08:29:22;1.90;91.20
65864;SHT30;52639;51.180;20.460;2022-11-23T08:33:25;1.97;91.30
65864;SHT30;52639;51.180;20.460;2022-11-23T08:37:28;1.98;91.20
65864;SHT30;52639;51.180;20.460;2022-11-23T08:41:32;1.81;90.34
65864;SHT30;52639;51.180;20.460;2022-11-23T08:45:35;1.91;91.36
65864;SHT30;52639;51.180;20.460;2022-11-23T08:49:37;1.82;90.33
65864;SHT30;52639;51.180;20.460;2022-11-23T08:53:40;1.95;90.42
65864;SHT30;52639;51.180;20.460;2022-11-23T08:57:44;1.94;90.22
65864;SHT30;52639;51.180;20.460;2022-11-23T09:01:47;2.17;89.87
65864;SHT30;52639;51.180;20.460;2022-11-23T09:05:49;2.36;89.78
65864;SHT30;52639;51.180;20.460;2022-11-23T09:09:53;2.29;89.52
65864;SHT30;52639;51.180;20.460;2022-11-23T09:13:57;2.49;89.50
65864;SHT30;52639;51.180;20.460;2022-11-23T09:18:00;2.80;89.59
65864;SHT30;52639;51.180;20.460;2022-11-23T09:22:03;3.28;88.44
65864;SHT30;52639;51.180;20.460;2022-11-23T09:26:05;3.77;86.51
65864;SHT30;52639;51.180;20.460;2022-11-23T09:30:11;3.82;84.75
65864;SHT30;52639;51.180;20.460;2022-11-23T09:34:14;3.79;85.27
65864;SHT30;52639;51.180;20.460;2022-11-23T09:38:16;4.23;84.28
65864;SHT30;52639;51.180;20.460;2022-11-23T09:42:40;4.01;84.96
65864;SHT30;52639;51.180;20.460;2022-11-23T09:46:58;3.55;85.38
65864;SHT30;52639;51.180;20.460;2022-11-23T09:51:13;3.33;84.38
65864;SHT30;52639;51.180;20.460;2022-11-23T09:55:20;2.97;85.54
65864;SHT30;52639;51.180;20.460;2022-11-23T09:59:30;3.28;85.85
65864;SHT30;52639;51.180;20.460;2022-11-23T10:03:38;3.14;85.15
65864;SHT30;52639;51.180;20.460;2022-11-23T10:07:48;3.26;86.00
65864;SHT30;52639;51.180;20.460;2022-11-23T10:12:14;3.16;84.51
65864;SHT30;52639;51.180;20.460;2022-11-23T10:16:28;3.95;84.55
65864;SHT30;52639;51.180;20.460;2022-11-23T10:20:51;4.18;82.44
65864;SHT30;52639;51.180;20.460;2022-11-23T10:24:55;4.38;83.19
65864;SHT30;52639;51.180;20.460;2022-11-23T10:29:06;3.95;82.93
65864;SHT30;52639;51.180;20.460;2022-11-23T10:33:20;3.77;84.42
65864;SHT30;52639;51.180;20.460;2022-11-23T10:37:25;3.21;83.54
65864;SHT30;52639;51.180;20.460;2022-11-23T10:41:29;3.21;84.69
65864;SHT30;52639;51.180;20.460;2022-11-23T10:45:31;3.07;84.76
65864;SHT30;52639;51.180;20.460;2022-11-23T10:49:35;3.10;84.86
65864;SHT30;52639;51.180;20.460;2022-11-23T10:53:39;3.13;85.76
65864;SHT30;52639;51.180;20.460;2022-11-23T10:57:44;3.00;85.40
65864;SHT30;52639;51.180;20.460;2022-11-23T11:01:58;2.85;86.24
65864;SHT30;52639;51.180;20.460;2022-11-23T11:06:02;2.87;86.42
65864;SHT30;52639;51.180;20.460;2022-11-23T11:10:35;2.89;85.90
65864;SHT30;52639;51.180;20.460;2022-11-23T11:14:54;2.72;86.12
65864;SHT30;52639;51.180;20.460;2022-11-23T11:18:58;2.72;85.99
65864;SHT30;52639;51.180;20.460;2022-11-23T11:23:03;2.72;86.80
65864;SHT30;52639;51.180;20.460;2022-11-23T11:27:14;2.82;87.20
65864;SHT30;52639;51.180;20.460;2022-11-23T11:35:52;2.75;86.92
65864;SHT30;52639;51.180;20.460;2022-11-23T11:40:02;2.76;87.40
65864;SHT30;52639;51.180;20.460;2022-11-23T11:44:17;2.55;87.04
65864;SHT30;52639;51.180;20.460;2022-11-23T11:48:24;2.59;87.32
65864;SHT30;52639;51.180;20.460;2022-11-23T11:52:32;2.75;87.24
65864;SHT30;52639;51.180;20.460;2022-11-23T11:56:38;2.55;86.40
65864;SHT30;52639;51.180;20.460;2022-11-23T12:00:46;2.28;87.68
65864;SHT30;52639;51.180;20.460;2022-11-23T12:04:55;2.04;88.24
65864;SHT30;52639;51.180;20.460;2022-11-23T12:09:02;2.01;88.82
65864;SHT30;52639;51.180;20.460;2022-11-23T12:13:12;1.91;88.86
65864;SHT30;52639;51.180;20.460;2022-11-23T12:17:41;1.94;89.24
65864;SHT30;52639;51.180;20.460;2022-11-23T12:22:09;1.77;88.89
65864;SHT30;52639;51.180;20.460;2022-11-23T12:26:19;1.82;89.36
65864;SHT30;52639;51.180;20.460;2022-11-23T12:30:28;1.77;89.41
65864;SHT30;52639;51.180;20.460;2022-11-23T12:34:46;1.64;89.38
65864;SHT30;52639;51.180;20.460;2022-11-23T12:38:54;1.59;89.85
65864;SHT30;52639;51.180;20.460;2022-11-23T12:43:00;1.57;90.15
65864;SHT30;52639;51.180;20.460;2022-11-23T12:47:12;1.64;90.26
65864;SHT30;52639;51.180;20.460;2022-11-23T12:51:24;1.64;89.90
65864;SHT30;52639;51.180;20.460;2022-11-23T12:55:36;1.67;89.98
65864;SHT30;52639;51.180;20.460;2022-11-23T12:59:46;1.60;90.04
65864;SHT30;52639;51.180;20.460;2022-11-23T13:04:20;1.64;90.27
65864;SHT30;52639;51.180;20.460;2022-11-23T13:08:47;1.67;90.24
65864;SHT30;52639;51.180;20.460;2022-11-23T13:17:28;1.71;90.31
65864;SHT30;52639;51.180;20.460;2022-11-23T13:21:34;1.73;90.36
65864;SHT30;52639;51.180;20.460;2022-11-23T13:25:40;1.74;90.39
65864;SHT30;52639;51.180;20.460;2022-11-23T13:29:52;1.73;90.26
65864;SHT30;52639;51.180;20.460;2022-11-23T13:34:00;1.64;90.55
65864;SHT30;52639;51.180;20.460;2022-11-23T13:38:17;1.54;90.77
65864;SHT30;52639;51.180;20.460;2022-11-23T13:42:23;1.47;91.21
65864;SHT30;52639;51.180;20.460;2022-11-23T13:46:27;1.43;91.27
65864;SHT30;52639;51.180;20.460;2022-11-23T13:50:30;1.36;91.48
65864;SHT30;52639;51.180;20.460;2022-11-23T13:54:33;1.35;91.92
65864;SHT30;52639;51.180;20.460;2022-11-23T13:58:38;1.33;91.91
65864;SHT30;52639;51.180;20.460;2022-11-23T14:02:41;1.33;92.04
65864;SHT30;52639;51.180;20.460;2022-11-23T14:06:45;1.27;92.16
65864;SHT30;52639;51.180;20.460;2022-11-23T14:10:51;1.27;92.25
65864;SHT30;52639;51.180;20.460;2022-11-23T14:15:02;1.22;92.22
65864;SHT30;52639;51.180;20.460;2022-11-23T14:19:16;1.19;92.38
65864;SHT30;52639;51.180;20.460;2022-11-23T14:27:56;1.13;92.57
65864;SHT30;52639;51.180;20.460;2022-11-23T14:32:15;1.10;92.55
65864;SHT30;52639;51.180;20.460;2022-11-23T14:36:29;1.07;92.78
65864;SHT30;52639;51.180;20.460;2022-11-23T14:40:46;1.03;92.78
65864;SHT30;52639;51.180;20.460;2022-11-23T14:44:55;1.02;92.87
65864;SHT30;52639;51.180;20.460;2022-11-23T14:49:05;0.96;92.61
65864;SHT30;52639;51.180;20.460;2022-11-23T14:53:09;0.92;92.88
65864;SHT30;52639;51.180;20.460;2022-11-23T14:57:13;0.89;92.85
65864;SHT30;52639;51.180;20.460;2022-11-23T15:01:19;0.91;92.78
65864;SHT30;52639;51.180;20.460;2022-11-23T15:05:26;0.88;92.55
65864;SHT30;52639;51.180;20.460;2022-11-23T15:09:42;0.91;92.48
65864;SHT30;52639;51.180;20.460;2022-11-23T15:13:50;0.89;92.54
65864;SHT30;52639;51.180;20.460;2022-11-23T15:17:54;0.86;93.25
65864;SHT30;52639;51.180;20.460;2022-11-23T15:21:58;0.85;93.42
65864;SHT30;52639;51.180;20.460;2022-11-23T15:26:03;0.85;92.98
65864;SHT30;52639;51.180;20.460;2022-11-23T15:30:14;0.82;93.22
65864;SHT30;52639;51.180;20.460;2022-11-23T15:34:16;0.83;92.91
65864;SHT30;52639;51.180;20.460;2022-11-23T15:38:21;0.86;93.17
65864;SHT30;52639;51.180;20.460;2022-11-23T15:42:24;0.88;93.14
65864;SHT30;52639;51.180;20.460;2022-11-23T15:46:33;0.85;93.10
65864;SHT30;52639;51.180;20.460;2022-11-23T15:50:44;0.86;92.76
65864;SHT30;52639;51.180;20.460;2022-11-23T15:54:50;0.86;92.72
65864;SHT30;52639;51.180;20.460;2022-11-23T15:58:53;0.85;92.77
65864;SHT30;52639;51.180;20.460;2022-11-23T16:03:26;0.83;92.92
65864;SHT30;52639;51.180;20.460;2022-11-23T16:07:30;0.81;92.99
65864;SHT30;52639;51.180;20.460;2022-11-23T16:11:35;0.78;93.76
65864;SHT30;52639;51.180;20.460;2022-11-23T16:15:39;0.75;93.77
65864;SHT30;52639;51.180;20.460;2022-11-23T16:19:46;0.72;94.41
65864;SHT30;52639;51.180;20.460;2022-11-23T16:23:50;0.68;94.97
65864;SHT30;52639;51.180;20.460;2022-11-23T16:27:59;0.68;95.14
65864;SHT30;52639;51.180;20.460;2022-11-23T16:32:03;0.71;95.23
65864;SHT30;52639;51.180;20.460;2022-11-23T16:36:07;0.65;94.89
65864;SHT30;52639;51.180;20.460;2022-11-23T16:40:11;0.65;95.05
65864;SHT30;52639;51.180;20.460;2022-11-23T16:44:16;0.62;95.08
65864;SHT30;52639;51.180;20.460;2022-11-23T16:48:37;0.62;94.50
65864;SHT30;52639;51.180;20.460;2022-11-23T16:52:41;0.64;94.61
65864;SHT30;52639;51.180;20.460;2022-11-23T16:56:44;0.62;94.97
65864;SHT30;52639;51.180;20.460;2022-11-23T17:00:49;0.61;95.52
65864;SHT30;52639;51.180;20.460;2022-11-23T17:04:51;0.64;95.61
65864;SHT30;52639;51.180;20.460;2022-11-23T17:08:54;0.62;95.48
65864;SHT30;52639;51.180;20.460;2022-11-23T17:12:59;0.64;95.88
65864;SHT30;52639;51.180;20.460;2022-11-23T17:17:04;0.65;95.35
65864;SHT30;52639;51.180;20.460;2022-11-23T17:21:06;0.64;94.85
65864;SHT30;52639;51.180;20.460;2022-11-23T17:25:11;0.66;94.81
65864;SHT30;52639;51.180;20.460;2022-11-23T17:29:15;0.68;94.82
65864;SHT30;52639;51.180;20.460;2022-11-23T17:33:21;0.69;94.71
65864;SHT30;52639;51.180;20.460;2022-11-23T17:37:24;0.69;94.84
65864;SHT30;52639;51.180;20.460;2022-11-23T17:41:27;0.71;94.78
65864;SHT30;52639;51.180;20.460;2022-11-23T17:45:30;0.68;94.76
65864;SHT30;52639;51.180;20.460;2022-11-23T17:49:41;0.69;94.46
65864;SHT30;52639;51.180;20.460;2022-11-23T17:53:45;0.65;94.57
65864;SHT30;52639;51.180;20.460;2022-11-23T17:57:51;0.60;94.49
65864;SHT30;52639;51.180;20.460;2022-11-23T18:01:54;0.58;94.29
65864;SHT30;52639;51.180;20.460;2022-11-23T18:05:59;0.54;94.65
65864;SHT30;52639;51.180;20.460;2022-11-23T18:10:03;0.55;94.91
65864;SHT30;52639;51.180;20.460;2022-11-23T18:14:06;0.50;94.91
65864;SHT30;52639;51.180;20.460;2022-11-23T18:18:09;0.51;95.25
65864;SHT30;52639;51.180;20.460;2022-11-23T18:22:14;0.51;95.14
65864;SHT30;52639;51.180;20.460;2022-11-23T18:26:19;0.51;95.94
65864;SHT30;52639;51.180;20.460;2022-11-23T18:30:23;0.51;95.45
65864;SHT30;52639;51.180;20.460;2022-11-23T18:34:25;0.51;95.22
65864;SHT30;52639;51.180;20.460;2022-11-23T18:38:31;0.47;95.54
65864;SHT30;52639;51.180;20.460;2022-11-23T18:42:34;0.45;95.80
65864;SHT30;52639;51.180;20.460;2022-11-23T18:46:37;0.48;96.00
65864;SHT30;52639;51.180;20.460;2022-11-23T18:50:41;0.47;95.70
65864;SHT30;52639;51.180;20.460;2022-11-23T18:54:46;0.48;95.51
65864;SHT30;52639;51.180;20.460;2022-11-23T18:58:50;0.48;95.36
65864;SHT30;52639;51.180;20.460;2022-11-23T19:02:53;0.41;95.35
65864;SHT30;52639;51.180;20.460;2022-11-23T19:06:57;0.34;95.57
65864;SHT30;52639;51.180;20.460;2022-11-23T19:11:08;0.31;95.64
65864;SHT30;52639;51.180;20.460;2022-11-23T19:15:14;0.25;95.93
65864;SHT30;52639;51.180;20.460;2022-11-23T19:19:25;0.25;96.13
65864;SHT30;52639;51.180;20.460;2022-11-23T19:23:29;0.20;96.38
65864;SHT30;52639;51.180;20.460;2022-11-23T19:27:34;0.18;96.35
65864;SHT30;52639;51.180;20.460;2022-11-23T19:31:40;0.17;96.39
65864;SHT30;52639;51.180;20.460;2022-11-23T19:35:43;0.20;96.03
65864;SHT30;52639;51.180;20.460;2022-11-23T19:39:47;0.20;96.19
65864;SHT30;52639;51.180;20.460;2022-11-23T19:43:53;0.21;96.02
65864;SHT30;52639;51.180;20.460;2022-11-23T19:47:57;0.18;96.42
65864;SHT30;52639;51.180;20.460;2022-11-23T19:52:00;0.17;96.50
65864;SHT30;52639;51.180;20.460;2022-11-23T19:56:05;0.17;96.41
65864;SHT30;52639;51.180;20.460;2022-11-23T20:00:12;0.15;96.33
65864;SHT30;52639;51.180;20.460;2022-11-23T20:04:15;0.11;96.63
65864;SHT30;52639;51.180;20.460;2022-11-23T20:08:19;0.11;96.60
65864;SHT30;52639;51.180;20.460;2022-11-23T20:12:22;0.08;96.36
65864;SHT30;52639;51.180;20.460;2022-11-23T20:16:29;0.07;96.54
65864;SHT30;52639;51.180;20.460;2022-11-23T20:20:33;0.07;96.51
65864;SHT30;52639;51.180;20.460;2022-11-23T20:24:36;0.00;96.63
65864;SHT30;52639;51.180;20.460;2022-11-23T20:28:44;0.01;96.93
65864;SHT30;52639;51.180;20.460;2022-11-23T20:32:50;-0.02;96.68
65864;SHT30;52639;51.180;20.460;2022-11-23T20:36:53;0.01;96.38
65864;SHT30;52639;51.180;20.460;2022-11-23T20:40:58;0.00;96.22
65864;SHT30;52639;51.180;20.460;2022-11-23T20:45:03;0.00;96.12
65864;SHT30;52639;51.180;20.460;2022-11-23T20:49:08;-0.04;95.91
65864;SHT30;52639;51.180;20.460;2022-11-23T20:53:11;-0.09;96.08
65864;SHT30;52639;51.180;20.460;2022-11-23T20:57:15;-0.10;96.16
65864;SHT30;52639;51.180;20.460;2022-11-23T21:01:19;-0.11;96.67
65864;SHT30;52639;51.180;20.460;2022-11-23T21:05:27;-0.10;96.64
65864;SHT30;52639;51.180;20.460;2022-11-23T21:09:32;-0.11;96.67
65864;SHT30;52639;51.180;20.460;2022-11-23T21:13:36;-0.11;96.81
65864;SHT30;52639;51.180;20.460;2022-11-23T21:17:56;-0.10;96.44
65864;SHT30;52639;51.180;20.460;2022-11-23T21:22:07;-0.10;96.13
65864;SHT30;52639;51.180;20.460;2022-11-23T21:26:10;-0.09;96.44
65864;SHT30;52639;51.180;20.460;2022-11-23T21:30:13;-0.09;96.11
65864;SHT30;52639;51.180;20.460;2022-11-23T21:34:17;-0.11;96.10
65864;SHT30;52639;51.180;20.460;2022-11-23T21:38:24;-0.13;96.39
65864;SHT30;52639;51.180;20.460;2022-11-23T21:42:31;-0.14;96.44
65864;SHT30;52639;51.180;20.460;2022-11-23T21:46:35;-0.17;96.56
65864;SHT30;52639;51.180;20.460;2022-11-23T21:50:38;-0.20;96.50
65864;SHT30;52639;51.180;20.460;2022-11-23T21:54:45;-0.24;96.55
65864;SHT30;52639;51.180;20.460;2022-11-23T21:58:48;-0.30;96.62
65864;SHT30;52639;51.180;20.460;2022-11-23T22:02:51;-0.31;96.50
65864;SHT30;52639;51.180;20.460;2022-11-23T22:06:54;-0.27;96.13
65864;SHT30;52639;51.180;20.460;2022-11-23T22:10:59;-0.26;95.92
65864;SHT30;52639;51.180;20.460;2022-11-23T22:15:03;-0.23;95.68
65864;SHT30;52639;51.180;20.460;2022-11-23T22:19:09;-0.26;95.54
65864;SHT30;52639;51.180;20.460;2022-11-23T22:23:11;-0.27;95.42
65864;SHT30;52639;51.180;20.460;2022-11-23T22:27:16;-0.26;95.24
65864;SHT30;52639;51.180;20.460;2022-11-23T22:31:20;-0.24;95.24
65864;SHT30;52639;51.180;20.460;2022-11-23T22:35:23;-0.20;95.21
65864;SHT30;52639;51.180;20.460;2022-11-23T22:39:25;-0.27;95.48
65864;SHT30;52639;51.180;20.460;2022-11-23T22:43:29;-0.28;95.83
65864;SHT30;52639;51.180;20.460;2022-11-23T22:47:32;-0.27;95.75
65864;SHT30;52639;51.180;20.460;2022-11-23T22:51:35;-0.27;95.56
65864;SHT30;52639;51.180;20.460;2022-11-23T22:55:37;-0.33;95.70
65864;SHT30;52639;51.180;20.460;2022-11-23T22:59:41;-0.37;95.79
65864;SHT30;52639;51.180;20.460;2022-11-23T23:03:44;-0.34;95.66
65864;SHT30;52639;51.180;20.460;2022-11-23T23:07:48;-0.37;95.59
65864;SHT30;52639;51.180;20.460;2022-11-23T23:11:50;-0.41;95.63
65864;SHT30;52639;51.180;20.460;2022-11-23T23:16:00;-0.44;95.49
65864;SHT30;52639;51.180;20.460;2022-11-23T23:20:03;-0.50;95.68
65864;SHT30;52639;51.180;20.460;2022-11-23T23:24:08;-0.51;95.83
65864;SHT30;52639;51.180;20.460;2022-11-23T23:28:11;-0.53;96.04
65864;SHT30;52639;51.180;20.460;2022-11-23T23:32:16;-0.51;95.89
65864;SHT30;52639;51.180;20.460;2022-11-23T23:36:20;-0.51;96.24
65864;SHT30;52639;51.180;20.460;2022-11-23T23:40:23;-0.48;96.07
65864;SHT30;52639;51.180;20.460;2022-11-23T23:44:25;-0.51;95.95
65864;SHT30;52639;51.180;20.460;2022-11-23T23:48:32;-0.53;96.07
65864;SHT30;52639;51.180;20.460;2022-11-23T23:52:36;-0.50;96.20
65864;SHT30;52639;51.180;20.460;2022-11-23T23:56:39;-0.53;96.37
